createdAt,value
2019-04-21T00:00:05.886Z,41.87
2019-04-21T00:01:05.422Z,41.91
2019-04-21T00:02:03.369Z,41.9
2019-04-21T00:03:09.773Z,41.85
2019-04-21T00:04:11.179Z,41.81
2019-04-21T00:05:24.351Z,41.87
2019-04-21T00:06:21.816Z,41.84
2019-04-21T00:07:19.127Z,41.95
2019-04-21T00:08:34.953Z,41.85
2019-04-21T00:09:24.011Z,42.04
2019-04-21T00:10:26.763Z,41.9
2019-04-21T00:11:21.807Z,41.89
2019-04-21T00:12:34.278Z,41.92
2019-04-21T00:13:17.533Z,41.92
2019-04-21T00:14:13.993Z,41.94
2019-04-21T00:15:13.353Z,42.02
2019-04-21T00:16:05.510Z,42.05
2019-04-21T00:17:07.672Z,42.16
2019-04-21T00:18:05.610Z,42.11
2019-04-21T00:19:08.970Z,42.16
2019-04-21T00:20:12.359Z,42.2
2019-04-21T00:21:10.891Z,42.26
2019-04-21T00:22:14.778Z,42.05
2019-04-21T00:23:16.543Z,42.11
2019-04-21T00:24:15.925Z,42.17
2019-04-21T00:25:17.812Z,42.14
2019-04-21T00:26:10.824Z,42.1
2019-04-21T00:27:19.900Z,42.2
2019-04-21T00:28:23.723Z,42.29
2019-04-21T00:29:25.510Z,42.07
2019-04-21T00:30:21.200Z,42.18
2019-04-21T00:31:19.157Z,42.06
2019-04-21T00:32:17.503Z,42.11
2019-04-21T00:33:08.931Z,42.21
2019-04-21T00:34:02.614Z,42.18
2019-04-21T00:35:08.064Z,42.24
2019-04-21T00:36:10.096Z,42.25
2019-04-21T00:37:11.975Z,42.12
2019-04-21T00:38:24.321Z,42.24
2019-04-21T00:39:28.478Z,42.16
2019-04-21T00:40:21.878Z,42.2
2019-04-21T00:41:24.817Z,42.26
2019-04-21T00:42:17.982Z,42.23
2019-04-21T00:43:19.232Z,42.56
2019-04-21T00:44:13.914Z,42.19
2019-04-21T00:45:18.024Z,42.46
2019-04-21T00:46:10.680Z,42.75
2019-04-21T00:47:26.534Z,42.48
2019-04-21T00:48:22.804Z,42.52
2019-04-21T00:49:19.248Z,42.47
2019-04-21T00:50:24.541Z,42.54
2019-04-21T00:51:33.015Z,42.52
2019-04-21T00:52:37.776Z,42.77
2019-04-21T00:53:28.555Z,42.78
2019-04-21T00:54:32.608Z,42.75
2019-04-21T00:56:27.287Z,43.06
2019-04-21T00:57:23.976Z,43.25
2019-04-21T00:58:38.495Z,43.32
2019-04-21T00:59:25.459Z,43.26
2019-04-21T01:00:32.190Z,43.37
2019-04-21T01:01:24.687Z,43.29
2019-04-21T01:02:21.833Z,43.42
2019-04-21T01:03:25.677Z,43.45
2019-04-21T01:04:23.306Z,43.58
2019-04-21T01:05:25.273Z,43.46
2019-04-21T01:06:22.207Z,43.75
2019-04-21T01:07:19.171Z,43.74
2019-04-21T01:08:19.716Z,43.79
2019-04-21T01:09:23.577Z,43.6
2019-04-21T01:10:14.318Z,43.68
2019-04-21T01:11:23.505Z,43.82
2019-04-21T01:12:25.233Z,43.85
2019-04-21T01:13:26.027Z,44.21
2019-04-21T01:14:29.622Z,44.48
2019-04-21T01:15:30.429Z,44.26
2019-04-21T01:16:26.866Z,44.58
2019-04-21T01:17:21.535Z,44.89
2019-04-21T01:18:20.334Z,44.47
2019-04-21T01:19:20.766Z,44.93
2019-04-21T01:20:15.680Z,45.28
2019-04-21T01:21:13.552Z,45.09
2019-04-21T01:22:02.264Z,44.95
2019-04-21T01:23:02.375Z,44.98
2019-04-21T01:24:11.337Z,45.69
2019-04-21T01:25:11.714Z,45.27
2019-04-21T01:26:17.629Z,44.98
2019-04-21T01:27:12.005Z,45.44
2019-04-21T01:28:18.492Z,45.32
2019-04-21T01:29:18.982Z,45.26
2019-04-21T01:30:22.030Z,45.42
2019-04-21T01:31:16.810Z,45.11
2019-04-21T01:32:23.460Z,45.44
2019-04-21T01:33:25.831Z,45.78
2019-04-21T01:34:20.328Z,45.34
2019-04-21T01:35:20.553Z,45.07
2019-04-21T01:36:17.614Z,45.65
2019-04-21T01:37:18.282Z,45.7
2019-04-21T01:38:28.697Z,45.6
2019-04-21T01:39:26.920Z,45.3
2019-04-21T01:40:28.640Z,45.5
2019-04-21T01:41:25.300Z,45.28
2019-04-21T01:42:20.873Z,45.45
2019-04-21T01:43:23.167Z,45.31
2019-04-21T01:44:29.440Z,45.19
2019-04-21T01:45:21.046Z,45.71
2019-04-21T01:46:19.034Z,45.44
2019-04-21T01:47:15.697Z,45.18
2019-04-21T01:48:19.351Z,45.5
2019-04-21T01:49:15.693Z,45.73
2019-04-21T01:50:11.124Z,45.57
2019-04-21T01:51:17.946Z,45.66
2019-04-21T01:52:29.802Z,45.38
2019-04-21T01:53:23.752Z,45.37
2019-04-21T01:54:21.586Z,45.79
2019-04-21T01:55:24.778Z,45.49
2019-04-21T01:56:23.657Z,45.55
2019-04-21T01:57:17.177Z,45.27
2019-04-21T01:58:18.106Z,45.27
2019-04-21T01:59:08.856Z,45.6
2019-04-21T02:00:12.922Z,45.76
2019-04-21T02:01:23.838Z,45.94
2019-04-21T02:02:22.793Z,45.65
2019-04-21T02:03:40.483Z,45.89
2019-04-21T02:04:29.066Z,45.81
2019-04-21T02:06:38.641Z,46.34
2019-04-21T02:07:20.175Z,46.13
2019-04-21T02:08:21.348Z,45.88
2019-04-21T02:09:18.728Z,45.68
2019-04-21T02:10:26.481Z,45.42
2019-04-21T02:11:22.915Z,45.36
2019-04-21T02:12:25.102Z,45.83
2019-04-21T02:13:16.761Z,45.98
2019-04-21T02:14:45.272Z,46.24
2019-04-21T02:15:23.316Z,45.95
2019-04-21T02:16:22.582Z,45.56
2019-04-21T02:17:21.583Z,45.69
2019-04-21T02:18:21.880Z,45.68
2019-04-21T02:19:16.405Z,46.1
2019-04-21T02:20:15.118Z,45.89
2019-04-21T02:21:17.703Z,45.84
2019-04-21T02:22:27.077Z,45.81
2019-04-21T02:24:28.476Z,45.85
2019-04-21T02:25:25.665Z,46.1
2019-04-21T02:26:22.475Z,46.01
2019-04-21T02:27:23.260Z,45.77
2019-04-21T02:28:27.854Z,46.11
2019-04-21T02:29:26.518Z,46.1
2019-04-21T02:30:35.199Z,45.95
2019-04-21T02:32:35.108Z,46.04
2019-04-21T02:33:35.924Z,45.85
2019-04-21T02:34:48.561Z,45.98
2019-04-21T02:35:38.104Z,46.01
2019-04-21T02:36:39.298Z,45.72
2019-04-21T02:38:36.100Z,46.35
2019-04-21T02:40:38.272Z,45.91
2019-04-21T02:42:37.427Z,46.03
2019-04-21T02:43:44.276Z,45.94
2019-04-21T02:44:36.966Z,45.84
2019-04-21T02:45:29.469Z,46.11
2019-04-21T02:46:41.843Z,45.87
2019-04-21T02:48:37.933Z,46.15
2019-04-21T02:49:53.363Z,46.1
2019-04-21T02:51:33.237Z,47.09
2019-04-21T02:52:35.241Z,46.67
2019-04-21T02:55:36.079Z,46.46
2019-04-21T02:56:33.565Z,46.58
2019-04-21T02:57:30.635Z,46.41
2019-04-21T02:58:41.348Z,46.49
2019-04-21T02:59:32.832Z,46.43
2019-04-21T03:00:42.428Z,46.08
2019-04-21T03:02:40.479Z,46.2
2019-04-21T03:04:34.097Z,46.14
2019-04-21T03:05:35.929Z,46.4
2019-04-21T03:06:39.167Z,46.34
2019-04-21T03:09:30.591Z,46.97
2019-04-21T03:10:34.559Z,46.6
2019-04-21T03:11:23.737Z,46.52
2019-04-21T03:14:45.888Z,46.61
2019-04-21T03:16:25.676Z,46.84
2019-04-21T03:17:42.448Z,47.11
2019-04-21T03:20:33.184Z,47.02
2019-04-21T03:21:28.194Z,47.06
2019-04-21T03:23:35.991Z,46.72
2019-04-21T03:24:53.308Z,47.16
2019-04-21T03:25:40.747Z,46.96
2019-04-21T03:27:39.458Z,47.5
2019-04-21T03:32:03.281Z,47.53
2019-04-21T03:34:55.802Z,47.61
2019-04-21T03:36:46.982Z,48.07
2019-04-21T03:37:41.863Z,48.1
2019-04-21T03:39:36.376Z,48.68
2019-04-21T03:40:31.968Z,48.48
2019-04-21T03:41:37.530Z,48.99
2019-04-21T03:42:38.314Z,49.38
2019-04-21T03:43:34.338Z,49.91
2019-04-21T03:44:29.920Z,49.31
2019-04-21T03:45:42.054Z,49.68
2019-04-21T03:46:32.225Z,49.64
2019-04-21T03:47:29.627Z,50.76
2019-04-21T03:48:35.247Z,50.42
2019-04-21T03:49:38.840Z,50.93
2019-04-21T03:52:38.545Z,50.73
2019-04-21T03:53:31.206Z,50.43
2019-04-21T03:54:35.765Z,50.45
2019-04-21T03:56:50.747Z,50.21
2019-04-21T03:57:45.709Z,50.83
2019-04-21T03:59:24.000Z,51.25
2019-04-21T04:01:40.225Z,51.77
2019-04-21T04:02:41.146Z,52.01
2019-04-21T04:06:32.275Z,51.54
2019-04-21T04:10:42.481Z,53.89
2019-04-21T04:11:37.476Z,53.92
2019-04-21T04:14:38.614Z,55.5
2019-04-21T04:15:38.017Z,55.05
2019-04-21T04:24:48.841Z,56.48
2019-04-21T04:25:33.246Z,55.69
2019-04-21T04:26:39.170Z,54.69
2019-04-21T04:27:37.628Z,54.47
2019-04-21T04:30:37.674Z,56.5
2019-04-21T04:32:41.673Z,56.47
2019-04-21T04:34:40.238Z,56.04
2019-04-21T04:35:41.943Z,56.54
2019-04-21T04:36:42.390Z,57.07
2019-04-21T04:39:42.545Z,56.52
2019-04-21T04:41:41.312Z,57.97
2019-04-21T04:42:38.839Z,57.75
2019-04-21T04:43:32.649Z,56.33
2019-04-21T04:44:46.220Z,56.63
2019-04-21T04:46:33.074Z,59.43
2019-04-21T04:50:38.940Z,59.44
2019-04-21T04:51:43.636Z,60.08
2019-04-21T04:53:39.557Z,59
2019-04-21T04:55:33.004Z,59.96
2019-04-21T04:56:28.563Z,59.54
2019-04-21T04:57:46.350Z,59.24
2019-04-21T04:58:42.517Z,59.04
2019-04-21T05:00:34.196Z,60.05
2019-04-21T05:01:40.280Z,60.04
2019-04-21T05:03:43.237Z,58.55
2019-04-21T05:04:44.923Z,58.81
2019-04-21T05:05:33.946Z,59.11
2019-04-21T05:06:41.820Z,58.01
2019-04-21T05:07:42.609Z,58.86
2019-04-21T05:08:41.737Z,59.46
2019-04-21T05:09:30.384Z,59.3
2019-04-21T05:10:38.188Z,59.84
2019-04-21T05:12:29.005Z,60.48
2019-04-21T05:13:32.978Z,60.81
2019-04-21T05:14:29.600Z,60.48
2019-04-21T05:15:23.192Z,61.13
2019-04-21T05:16:40.752Z,62.71
2019-04-21T05:17:35.766Z,63.78
2019-04-21T05:18:34.320Z,63.26
2019-04-21T05:19:53.110Z,62.22
2019-04-21T05:20:22.651Z,61.13
2019-04-21T05:21:34.079Z,61.28
2019-04-21T05:23:24.187Z,62.16
2019-04-21T05:24:22.866Z,61.2
2019-04-21T05:25:18.361Z,60.79
2019-04-21T05:26:14.241Z,61.46
2019-04-21T05:27:16.288Z,61.39
2019-04-21T05:28:14.866Z,61.55
2019-04-21T05:29:12.888Z,60.78
2019-04-21T05:30:28.229Z,60.51
2019-04-21T05:31:24.854Z,59.88
2019-04-21T05:32:24.177Z,60.06
2019-04-21T05:33:26.806Z,60.85
2019-04-21T05:34:21.790Z,60.92
2019-04-21T05:35:26.219Z,62.36
2019-04-21T05:36:18.524Z,60.71
2019-04-21T05:37:24.342Z,61.57
2019-04-21T05:38:21.227Z,60.35
2019-04-21T05:39:18.271Z,61.01
2019-04-21T05:40:17.203Z,61.69
2019-04-21T05:41:09.899Z,61.83
2019-04-21T05:42:10.431Z,61.3
2019-04-21T05:43:21.161Z,61.9
2019-04-21T05:44:27.632Z,61.43
2019-04-21T05:45:26.656Z,61.58
2019-04-21T05:46:25.020Z,61.21
2019-04-21T05:47:24.788Z,60.48
2019-04-21T05:49:21.537Z,61.54
2019-04-21T05:50:21.494Z,60.28
2019-04-21T05:51:20.121Z,60.99
2019-04-21T05:52:19.545Z,60.66
2019-04-21T05:53:29.253Z,60.75
2019-04-21T05:54:29.196Z,60.91
2019-04-21T05:55:24.273Z,60.95
2019-04-21T05:56:22.038Z,60.49
2019-04-21T05:57:20.133Z,61.39
2019-04-21T05:58:17.779Z,60.81
2019-04-21T05:59:19.930Z,60.16
2019-04-21T06:00:22.816Z,59.56
2019-04-21T06:01:37.495Z,59.87
2019-04-21T06:02:28.704Z,60.72
2019-04-21T06:03:22.834Z,60.6
2019-04-21T06:04:38.130Z,59.25
2019-04-21T06:05:28.004Z,60.64
2019-04-21T06:06:25.986Z,60.63
2019-04-21T06:08:24.969Z,61.57
2019-04-21T06:09:25.314Z,60.59
2019-04-21T06:10:26.974Z,60.73
2019-04-21T06:11:25.005Z,59.71
2019-04-21T06:12:19.306Z,60.23
2019-04-21T06:13:26.285Z,61.37
2019-04-21T06:14:29.171Z,61.12
2019-04-21T06:15:29.188Z,59.67
2019-04-21T06:16:28.495Z,59.22
2019-04-21T06:17:29.606Z,60.57
2019-04-21T06:18:26.898Z,59.52
2019-04-21T06:19:30.496Z,58.51
2019-04-21T06:20:26.896Z,59.73
2019-04-21T06:21:21.585Z,59.44
2019-04-21T06:22:35.818Z,59.48
2019-04-21T06:23:23.635Z,59.22
2019-04-21T06:24:20.106Z,59.1
2019-04-21T06:27:27.058Z,59.56
2019-04-21T06:28:28.046Z,59.06
2019-04-21T06:29:23.112Z,59.04
2019-04-21T06:30:25.094Z,58.9
2019-04-21T06:32:38.029Z,58.61
2019-04-21T06:33:27.232Z,58.01
2019-04-21T06:34:23.302Z,57.99
2019-04-21T06:35:27.912Z,57.67
2019-04-21T06:37:39.537Z,57.27
2019-04-21T06:38:32.587Z,57.23
2019-04-21T06:39:29.898Z,56.75
2019-04-21T06:40:27.576Z,56.68
2019-04-21T06:42:18.232Z,56.8
2019-04-21T06:43:32.800Z,57.05
2019-04-21T06:44:20.063Z,56.42
2019-04-21T06:45:27.109Z,55.66
2019-04-21T06:46:30.042Z,56.65
2019-04-21T06:47:29.830Z,55.52
2019-04-21T06:48:24.366Z,56.17
2019-04-21T06:49:18.539Z,56.71
2019-04-21T06:50:22.232Z,57.18
2019-04-21T06:51:35.533Z,56.3
2019-04-21T06:53:29.049Z,56.38
2019-04-21T06:54:26.990Z,56.46
2019-04-21T06:55:26.245Z,56.02
2019-04-21T06:56:30.514Z,55.79
2019-04-21T06:57:28.318Z,55.42
2019-04-21T06:58:24.843Z,55.49
2019-04-21T06:59:20.627Z,54.99
2019-04-21T07:00:18.285Z,54.06
2019-04-21T07:01:22.808Z,54.09
2019-04-21T07:02:35.939Z,53.77
2019-04-21T07:03:26.593Z,51.96
2019-04-21T07:04:22.141Z,51.71
2019-04-21T07:05:26.073Z,50.9
2019-04-21T07:06:22.042Z,50.41
2019-04-21T07:07:21.532Z,50.22
2019-04-21T07:08:44.167Z,50.08
2019-04-21T07:09:35.541Z,49.88
2019-04-21T07:10:36.669Z,49.31
2019-04-21T07:11:18.517Z,49.3
2019-04-21T07:12:21.575Z,49.85
2019-04-21T07:13:21.724Z,49.73
2019-04-21T07:14:27.928Z,49.55
2019-04-21T07:15:30.217Z,49.49
2019-04-21T07:16:24.968Z,48.83
2019-04-21T07:17:32.036Z,48.78
2019-04-21T07:18:27.098Z,48.61
2019-04-21T07:19:30.030Z,48.41
2019-04-21T07:20:21.313Z,48.07
2019-04-21T07:21:19.414Z,47.93
2019-04-21T07:22:24.311Z,47.82
2019-04-21T07:23:23.673Z,46.95
2019-04-21T07:24:24.909Z,46.89
2019-04-21T07:25:27.585Z,46.55
2019-04-21T07:26:24.980Z,45.21
2019-04-21T07:27:22.054Z,45.55
2019-04-21T07:28:24.976Z,44.83
2019-04-21T07:29:26.836Z,44.84
2019-04-21T07:30:24.154Z,45
2019-04-21T07:31:24.737Z,44.25
2019-04-21T07:32:20.476Z,43.97
2019-04-21T07:33:48.956Z,44.58
2019-04-21T07:34:26.747Z,44.13
2019-04-21T07:35:20.597Z,43.35
2019-04-21T07:36:30.303Z,43.86
2019-04-21T07:37:23.679Z,43.7
2019-04-21T07:38:21.004Z,43.68
2019-04-21T07:39:16.505Z,42.36
2019-04-21T07:40:18.881Z,42.23
2019-04-21T07:41:15.712Z,42.89
2019-04-21T07:42:17.294Z,41.83
2019-04-21T07:43:16.271Z,42.2
2019-04-21T07:44:16.722Z,42.45
2019-04-21T07:45:16.287Z,42.4
2019-04-21T07:46:14.090Z,41.7
2019-04-21T07:47:19.800Z,41.59
2019-04-21T07:48:18.593Z,41.68
2019-04-21T07:49:18.954Z,41.84
2019-04-21T07:50:26.150Z,41.69
2019-04-21T07:51:24.679Z,40.55
2019-04-21T07:53:27.462Z,40.4
2019-04-21T07:54:31.929Z,40.71
2019-04-21T07:56:09.172Z,40.15
2019-04-21T07:57:15.076Z,39.21
2019-04-21T07:58:20.772Z,39.71
2019-04-21T07:59:26.831Z,40.76
2019-04-21T08:00:28.716Z,41.13
2019-04-21T08:01:24.113Z,41.42
2019-04-21T08:02:21.983Z,40.56
2019-04-21T08:03:38.305Z,41.39
2019-04-21T08:06:26.509Z,40.18
2019-04-21T08:07:18.961Z,40.13
2019-04-21T08:08:20.596Z,40.72
2019-04-21T08:09:18.054Z,40.67
2019-04-21T08:10:20.878Z,40.77
2019-04-21T08:11:19.116Z,38.8
2019-04-21T08:12:14.103Z,39.04
2019-04-21T08:13:28.569Z,38.69
2019-04-21T08:14:23.532Z,38.98
2019-04-21T08:16:23.735Z,39.03
2019-04-21T08:17:23.244Z,39.01
2019-04-21T08:18:20.152Z,39.55
2019-04-21T08:19:18.430Z,39.55
2019-04-21T08:20:18.292Z,39.26
2019-04-21T08:21:20.482Z,38.44
2019-04-21T08:22:24.130Z,37.45
2019-04-21T08:23:25.220Z,37.55
2019-04-21T08:24:19.571Z,37.42
2019-04-21T08:25:19.181Z,36.89
2019-04-21T08:26:24.090Z,36.51
2019-04-21T08:27:25.165Z,36.97
2019-04-21T08:28:18.973Z,36.86
2019-04-21T08:29:25.407Z,37.45
2019-04-21T08:30:25.520Z,37.74
2019-04-21T08:32:25.962Z,36.42
2019-04-21T08:34:27.250Z,37.15
2019-04-21T08:36:22.698Z,36.86
2019-04-21T08:37:18.053Z,36.95
2019-04-21T08:38:19.858Z,38.05
2019-04-21T08:39:19.333Z,37.6
2019-04-21T08:40:26.101Z,36.69
2019-04-21T08:41:18.008Z,36.6
2019-04-21T08:42:16.716Z,36.6
2019-04-21T08:43:27.332Z,36.74
2019-04-21T08:44:25.467Z,37.51
2019-04-21T08:45:21.614Z,37.04
2019-04-21T08:46:23.723Z,36.08
2019-04-21T08:47:25.159Z,37.38
2019-04-21T08:48:22.088Z,37
2019-04-21T08:49:20.170Z,37.2
2019-04-21T08:50:20.368Z,37.32
2019-04-21T08:51:26.927Z,36.66
2019-04-21T08:52:35.856Z,36.58
2019-04-21T08:53:24.443Z,36.18
2019-04-21T08:54:21.357Z,36.41
2019-04-21T08:55:24.768Z,36.52
2019-04-21T08:56:21.116Z,35.89
2019-04-21T08:57:21.330Z,36.28
2019-04-21T08:59:23.921Z,36.5
2019-04-21T09:00:25.850Z,35.36
2019-04-21T09:01:23.649Z,36.1
2019-04-21T09:02:22.800Z,35.76
2019-04-21T09:03:21.133Z,35.58
2019-04-21T09:04:23.058Z,35.04
2019-04-21T09:05:17.373Z,35.17
2019-04-21T09:06:53.705Z,35.55
2019-04-21T09:08:19.351Z,35.02
2019-04-21T09:09:22.192Z,34.93
2019-04-21T09:10:21.755Z,35.98
2019-04-21T09:11:16.039Z,34.73
2019-04-21T09:12:20.998Z,36.01
2019-04-21T09:13:16.852Z,35.68
2019-04-21T09:14:17.659Z,35.25
2019-04-21T09:15:18.762Z,35.02
2019-04-21T09:16:13.577Z,35.23
2019-04-21T09:17:14.690Z,33.99
2019-04-21T09:18:13.225Z,33.96
2019-04-21T09:19:25.074Z,33.19
2019-04-21T09:20:38.442Z,33.56
2019-04-21T09:21:19.237Z,34.5
2019-04-21T09:22:16.437Z,33.27
2019-04-21T09:23:19.059Z,33.42
2019-04-21T09:24:21.684Z,33.36
2019-04-21T09:25:26.370Z,32.92
2019-04-21T09:26:18.131Z,34.67
2019-04-21T09:27:14.001Z,34.33
2019-04-21T09:28:16.591Z,34.42
2019-04-21T09:29:10.674Z,34.16
2019-04-21T09:30:04.790Z,33.92
2019-04-21T09:31:04.916Z,34
2019-04-21T09:32:03.716Z,33.58
2019-04-21T09:33:02.333Z,34.59
2019-04-21T09:34:04.432Z,34.18
2019-04-21T09:35:06.011Z,34.97
2019-04-21T09:36:06.097Z,34.84
2019-04-21T09:37:15.083Z,33.77
2019-04-21T09:38:13.190Z,34.39
2019-04-21T09:39:09.075Z,34.34
2019-04-21T09:40:02.991Z,34.81
2019-04-21T09:41:02.708Z,34.13
2019-04-21T09:42:04.342Z,34.46
2019-04-21T09:43:06.299Z,34.33
2019-04-21T09:44:03.008Z,32.96
2019-04-21T09:45:04.837Z,33.28
2019-04-21T09:46:01.903Z,34.57
2019-04-21T09:47:03.685Z,34.55
2019-04-21T09:48:07.861Z,33.67
2019-04-21T09:49:05.500Z,33.72
2019-04-21T09:50:03.455Z,33.29
2019-04-21T09:51:01.952Z,33.25
2019-04-21T09:52:02.228Z,32.27
2019-04-21T09:53:11.414Z,32.34
2019-04-21T09:54:07.982Z,32.06
2019-04-21T09:55:06.760Z,32.21
2019-04-21T09:56:04.975Z,32.44
2019-04-21T09:57:07.441Z,32.12
2019-04-21T09:58:09.798Z,31.81
2019-04-21T09:59:08.808Z,32.33
2019-04-21T10:00:08.517Z,32.83
2019-04-21T10:01:11.475Z,32.58
2019-04-21T10:02:08.333Z,32.61
2019-04-21T10:03:06.618Z,32.42
2019-04-21T10:04:04.141Z,32.17
2019-04-21T10:05:01.955Z,31.93
2019-04-21T10:06:01.641Z,32.21
2019-04-21T10:07:02.420Z,32.14
2019-04-21T10:08:01.607Z,32.9
2019-04-21T10:09:04.626Z,32.63
2019-04-21T10:10:01.600Z,32.51
2019-04-21T10:11:02.956Z,32.25
2019-04-21T10:12:02.974Z,32.25
2019-04-21T10:13:04.947Z,32.7
2019-04-21T10:14:01.594Z,32.14
2019-04-21T10:15:01.934Z,31.65
2019-04-21T10:16:02.787Z,30.29
2019-04-21T10:17:03.006Z,30.17
2019-04-21T10:18:02.693Z,29.9
2019-04-21T10:19:02.527Z,29.89
2019-04-21T10:20:03.072Z,29.6
2019-04-21T10:21:01.560Z,29.37
2019-04-21T10:22:03.755Z,30.44
2019-04-21T10:23:02.809Z,29.66
2019-04-21T10:24:01.987Z,29.8
2019-04-21T10:25:02.781Z,29.68
2019-04-21T10:26:01.544Z,28.51
2019-04-21T10:27:03.958Z,28.48
2019-04-21T10:28:01.638Z,29.37
2019-04-21T10:29:07.197Z,29.48
2019-04-21T10:30:01.806Z,28.68
2019-04-21T10:31:02.661Z,29.12
2019-04-21T10:32:01.614Z,28.23
2019-04-21T10:33:01.619Z,26.96
2019-04-21T10:34:03.162Z,27.6
2019-04-21T10:35:01.551Z,27.94
2019-04-21T10:36:01.726Z,28.04
2019-04-21T10:37:02.748Z,28.31
2019-04-21T10:38:14.541Z,27.74
2019-04-21T10:39:02.312Z,27.15
2019-04-21T10:40:01.548Z,27.23
2019-04-21T10:41:01.605Z,28
2019-04-21T10:42:01.618Z,27.99
2019-04-21T10:43:01.604Z,28.22
2019-04-21T10:44:03.042Z,26.72
2019-04-21T10:45:01.535Z,25.74
2019-04-21T10:46:01.528Z,25.21
2019-04-21T10:47:02.609Z,24.96
2019-04-21T10:48:02.936Z,25.81
2019-04-21T10:49:01.574Z,25.37
2019-04-21T10:50:02.690Z,24.98
2019-04-21T10:51:01.519Z,25.78
2019-04-21T10:52:01.543Z,25.19
2019-04-21T10:53:02.778Z,24.78
2019-04-21T10:54:01.945Z,25.11
2019-04-21T10:55:16.426Z,25.95
2019-04-21T10:56:11.972Z,24.93
2019-04-21T10:57:02.067Z,25.3
2019-04-21T10:58:02.310Z,25.21
2019-04-21T10:59:02.507Z,25.13
2019-04-21T11:00:01.601Z,25.62
2019-04-21T11:01:01.970Z,26.1
2019-04-21T11:02:01.562Z,25.61
2019-04-21T11:03:02.252Z,25.91
2019-04-21T11:04:02.692Z,26.56
2019-04-21T11:05:02.925Z,26.74
2019-04-21T11:06:03.084Z,26.98
2019-04-21T11:07:05.047Z,26.79
2019-04-21T11:08:11.803Z,27.09
2019-04-21T11:09:03.315Z,26.63
2019-04-21T11:10:02.447Z,26.37
2019-04-21T11:11:01.704Z,27.27
2019-04-21T11:12:01.983Z,26.93
2019-04-21T11:13:02.750Z,27.3
2019-04-21T11:14:02.405Z,26.42
2019-04-21T11:15:01.504Z,25.64
2019-04-21T11:16:01.526Z,24.77
2019-04-21T11:17:01.649Z,23.98
2019-04-21T11:18:01.771Z,23.37
2019-04-21T11:19:02.001Z,23.52
2019-04-21T11:20:01.543Z,23.81
2019-04-21T11:21:02.805Z,23.19
2019-04-21T11:22:02.856Z,23.07
2019-04-21T11:23:01.850Z,22.75
2019-04-21T11:24:01.873Z,23.39
2019-04-21T11:25:02.969Z,23.67
2019-04-21T11:26:02.230Z,23.11
2019-04-21T11:27:01.793Z,22.72
2019-04-21T11:28:02.657Z,22.53
2019-04-21T11:29:01.486Z,21.78
2019-04-21T11:30:02.324Z,21.75
2019-04-21T11:31:02.653Z,22.81
2019-04-21T11:32:01.527Z,22.29
2019-04-21T11:33:01.513Z,22
2019-04-21T11:34:01.530Z,21.77
2019-04-21T11:35:01.525Z,21.28
2019-04-21T11:36:01.520Z,22.15
2019-04-21T11:37:01.852Z,21.56
2019-04-21T11:38:08.256Z,22.04
2019-04-21T11:39:12.241Z,21.7
2019-04-21T11:40:07.115Z,21.64
2019-04-21T11:41:01.459Z,20.9
2019-04-21T11:42:01.740Z,21.74
2019-04-21T11:43:01.945Z,21.52
2019-04-21T11:44:01.554Z,22.13
2019-04-21T11:45:01.488Z,22.65
2019-04-21T11:46:02.519Z,21.06
2019-04-21T11:47:02.604Z,21.75
2019-04-21T11:48:01.474Z,21.26
2019-04-21T11:49:02.332Z,20.6
2019-04-21T11:50:01.540Z,20.65
2019-04-21T11:51:01.469Z,20.87
2019-04-21T11:52:02.835Z,20.29
2019-04-21T11:53:01.474Z,21.31
2019-04-21T11:54:01.572Z,20.42
2019-04-21T11:55:02.727Z,20.95
2019-04-21T11:56:02.756Z,19.97
2019-04-21T11:57:04.920Z,20.2
2019-04-21T11:58:01.464Z,20.09
2019-04-21T11:59:01.713Z,19.82
2019-04-21T12:00:01.786Z,19.86
2019-04-21T12:01:01.814Z,20.28
2019-04-21T12:02:01.613Z,20.25
2019-04-21T12:03:01.652Z,21
2019-04-21T12:04:01.469Z,20.82
2019-04-21T12:05:01.452Z,20.41
2019-04-21T12:06:01.607Z,20.67
2019-04-21T12:07:01.861Z,21.17
2019-04-21T12:08:01.989Z,21.75
2019-04-21T12:09:02.949Z,21.15
2019-04-21T12:10:01.640Z,21.24
2019-04-21T12:11:01.475Z,21.2
2019-04-21T12:12:01.548Z,21.09
2019-04-21T12:13:04.129Z,22.47
2019-04-21T12:14:01.447Z,22.01
2019-04-21T12:15:01.925Z,21.97
2019-04-21T12:16:01.473Z,21.47
2019-04-21T12:17:02.650Z,21.5
2019-04-21T12:18:01.731Z,21.17
2019-04-21T12:19:02.748Z,21.76
2019-04-21T12:20:01.432Z,22.22
2019-04-21T12:21:01.454Z,22.06
2019-04-21T12:22:10.857Z,22.31
2019-04-21T12:23:02.461Z,22.81
2019-04-21T12:24:02.683Z,23.17
2019-04-21T12:25:01.431Z,23.25
2019-04-21T12:26:01.476Z,22.6
2019-04-21T12:27:02.233Z,22.76
2019-04-21T12:28:01.748Z,23.16
2019-04-21T12:29:01.806Z,22.06
2019-04-21T12:30:02.014Z,22.39
2019-04-21T12:31:01.480Z,21.75
2019-04-21T12:32:01.460Z,21.06
2019-04-21T12:33:02.229Z,21.76
2019-04-21T12:34:01.451Z,21.69
2019-04-21T12:35:01.771Z,21.01
2019-04-21T12:36:01.890Z,21.11
2019-04-21T12:37:01.449Z,21.22
2019-04-21T12:38:02.622Z,21.39
2019-04-21T12:39:03.623Z,20.55
2019-04-21T12:40:03.127Z,20.77
2019-04-21T12:41:02.373Z,20.43
2019-04-21T12:42:02.563Z,20.49
2019-04-21T12:43:02.688Z,19.81
2019-04-21T12:44:02.481Z,20.59
2019-04-21T12:45:01.598Z,19.93
2019-04-21T12:46:02.187Z,20.46
2019-04-21T12:47:01.702Z,20.55
2019-04-21T12:48:02.123Z,20.65
2019-04-21T12:49:02.134Z,20.69
2019-04-21T12:50:02.702Z,20.66
2019-04-21T12:51:01.811Z,20.34
2019-04-21T12:52:01.820Z,20.12
2019-04-21T12:53:01.402Z,20.79
2019-04-21T12:54:01.645Z,19.87
2019-04-21T12:55:01.681Z,20.15
2019-04-21T12:56:02.104Z,20.17
2019-04-21T12:57:01.404Z,19.67
2019-04-21T12:58:01.527Z,20.41
2019-04-21T12:59:01.623Z,20.24
2019-04-21T13:00:02.771Z,20.18
2019-04-21T13:01:01.394Z,19.88
2019-04-21T13:02:01.437Z,20.87
2019-04-21T13:03:01.653Z,21.08
2019-04-21T13:04:01.792Z,20.34
2019-04-21T13:05:02.043Z,19.81
2019-04-21T13:06:01.553Z,19.46
2019-04-21T13:07:01.538Z,19.71
2019-04-21T13:08:01.647Z,19.55
2019-04-21T13:09:05.195Z,19.13
2019-04-21T13:10:02.317Z,19.88
2019-04-21T13:11:02.262Z,20.01
2019-04-21T13:12:01.485Z,19.69
2019-04-21T13:13:01.761Z,19.94
2019-04-21T13:14:01.882Z,20.22
2019-04-21T13:15:03.899Z,19.53
2019-04-21T13:16:01.390Z,19.18
2019-04-21T13:17:01.563Z,19.59
2019-04-21T13:18:02.545Z,19.35
2019-04-21T13:19:01.370Z,19.46
2019-04-21T13:20:01.483Z,19.92
2019-04-21T13:21:02.691Z,20.2
2019-04-21T13:22:01.575Z,19.77
2019-04-21T13:23:01.880Z,19.62
2019-04-21T13:24:01.380Z,20.07
2019-04-21T13:25:02.362Z,19.94
2019-04-21T13:26:03.151Z,20.83
2019-04-21T13:27:03.508Z,21.18
2019-04-21T13:28:02.763Z,20.86
2019-04-21T13:29:02.566Z,21.33
2019-04-21T13:30:02.190Z,21.54
2019-04-21T13:31:02.281Z,20.87
2019-04-21T13:32:03.694Z,20.27
2019-04-21T13:33:02.698Z,21
2019-04-21T13:34:02.117Z,20.33
2019-04-21T13:35:01.412Z,20.91
2019-04-21T13:36:02.805Z,20.14
2019-04-21T13:37:01.678Z,20.48
2019-04-21T13:38:02.603Z,19.19
2019-04-21T13:39:32.378Z,18.65
2019-04-21T13:40:20.279Z,18.77
2019-04-21T13:41:17.340Z,19.98
2019-04-21T13:42:10.595Z,19.08
2019-04-21T13:43:03.944Z,18.91
2019-04-21T13:44:01.343Z,19.33
2019-04-21T13:45:02.910Z,20
2019-04-21T13:46:01.801Z,20.01
2019-04-21T13:47:02.633Z,19.59
2019-04-21T13:48:01.344Z,19.98
2019-04-21T13:49:01.371Z,19.82
2019-04-21T13:50:03.062Z,20.01
2019-04-21T13:51:01.538Z,19.94
2019-04-21T13:52:02.533Z,20.1
2019-04-21T13:53:02.685Z,20.51
2019-04-21T13:54:01.914Z,19.72
2019-04-21T13:55:01.401Z,20.64
2019-04-21T13:56:02.588Z,19.71
2019-04-21T13:57:02.778Z,19.31
2019-04-21T13:58:02.064Z,19.08
2019-04-21T13:59:02.252Z,18.99
2019-04-21T14:00:01.536Z,19
2019-04-21T14:01:01.372Z,19.75
2019-04-21T14:02:02.662Z,19.12
2019-04-21T14:03:02.906Z,19.59
2019-04-21T14:04:01.940Z,19.58
2019-04-21T14:05:01.369Z,19.77
2019-04-21T14:06:02.509Z,19.34
2019-04-21T14:07:02.482Z,19.2
2019-04-21T14:08:03.015Z,19.18
2019-04-21T14:09:01.366Z,18.93
2019-04-21T14:10:05.133Z,18.42
2019-04-21T14:11:01.720Z,18.83
2019-04-21T14:12:01.429Z,18.66
2019-04-21T14:13:02.541Z,18.49
2019-04-21T14:14:02.555Z,18.83
2019-04-21T14:15:02.363Z,17.96
2019-04-21T14:16:02.121Z,17.56
2019-04-21T14:17:03.065Z,17.87
2019-04-21T14:18:02.732Z,18.37
2019-04-21T14:19:01.492Z,18.86
2019-04-21T14:20:01.537Z,18.62